MSC Susanna — 3ECU4 — position and weather

sailwx.info

Track history (hours):
 
Tides and Currents Weather Stations Pressure Air Temp Water Temp Dewpoint Dewpoint Depression Visibility Wind Speed Wind Dir Waves Ship Positions

MSC Susanna

Last reported at 2015-Aug-01 16:33 UTC. Time now 2015-Aug-01 20:21 UTC.
Position N 31°28' E 032°18'.

Length 337 m; draft 14.8 m.

Type: Ship (hazmat cat A). MMSI: 371466000.

Date/timePositionNaut miles runAvg speedWind from/ knotsBaromVisibWave heightAir tempDewpointWater temp
2015-Aug-01 16:33N 31°28' E 032°18'0 0.0
2015-Aug-01 11:33N 31°28' E 032°18'0 0.0
2015-Aug-01 09:29N 31°28' E 032°18'0 0.0
2015-Jul-31 10:19N 31°28' E 032°18'5 7.0
2015-Jul-31 09:33N 31°31' E 032°13'8814.4
2015-Jul-31 03:26N 32°14' E 030°42'1112.9
2015-Jul-31 02:33N 32°18' E 030°30'1312.9
2015-Jul-31 01:33N 32°23' E 030°16'1312.9
2015-Jul-31 00:34N 32°28' E 030°02'4012.9
2015-Jul-30 21:28N 32°44' E 029°18'1212.9
2015-Jul-30 20:33N 32°48' E 029°05'1313.0
2015-Jul-30 19:33N 32°53' E 028°51'2013.4
2015-Jul-30 18:05N 33°01' E 028°29'713.5
2015-Jul-30 17:33N 33°03' E 028°21'5415.8
2015-Jul-30 14:07N 33°24' E 027°22'915.8
2015-Jul-30 13:33N 33°28' E 027°12'62216.0
2015-Jul-28 22:33N 37°54' E 015°39'1717.2
2015-Jul-28 21:34N 38°10' E 015°35'1313.1
2015-Jul-28 20:33N 38°21' E 015°46'9 9.4
2015-Jul-28 19:33N 38°27' E 015°54'0 0.2
2015-Jul-28 18:30N 38°28' E 015°54'0 0.0
2015-Jul-28 17:33N 38°28' E 015°54'0 0.0
2015-Jul-28 16:33N 38°28' E 015°54'0 0.0
2015-Jul-28 14:30N 38°28' E 015°54'0 0.0
2015-Jul-28 13:33N 38°28' E 015°54'0 0.0
2015-Jul-28 12:27N 38°28' E 015°54'0 0.0
2015-Jul-28 11:33N 38°28' E 015°54'0 0.0
2015-Jul-28 10:33N 38°28' E 015°54'0 0.0
2015-Jul-28 09:30N 38°28' E 015°54'0 0.0
2015-Jul-28 08:30N 38°28' E 015°54'0 0.0
2015-Jul-28 07:33N 38°28' E 015°54'0 0.0
2015-Jul-28 06:12N 38°28' E 015°54'0 0.0
2015-Jul-28 05:30N 38°28' E 015°54'0 0.0
2015-Jul-28 04:33N 38°28' E 015°54'0 0.0
2015-Jul-28 03:30N 38°28' E 015°54'0 0.0
2015-Jul-28 02:33N 38°28' E 015°54'0 0.0
2015-Jul-28 01:33N 38°28' E 015°54'0 0.0
2015-Jul-28 00:33N 38°28' E 015°54'0 0.0
2015-Jul-27 23:27N 38°28' E 015°54'0 0.0
2015-Jul-27 22:30N 38°28' E 015°54'0 0.0
2015-Jul-27 21:33N 38°28' E 015°54'0 0.0
2015-Jul-27 20:30N 38°28' E 015°54'0 0.0
2015-Jul-27 19:27N 38°28' E 015°54'0 0.0
2015-Jul-27 17:30N 38°28' E 015°54'0 0.0
2015-Jul-27 15:06N 38°28' E 015°54'0 0.0
2015-Jul-27 14:33N 38°28' E 015°54'0 0.0
2015-Jul-27 13:27N 38°28' E 015°54'0 0.0
2015-Jul-27 12:33N 38°28' E 015°54'0 0.0
2015-Jul-27 11:06N 38°28' E 015°54'0 0.0
2015-Jul-27 10:33N 38°28' E 015°54'0 0.0
2015-Jul-27 09:33N 38°28' E 015°54'4 3.6
2015-Jul-27 08:33N 38°29' E 015°50'4 3.9
2015-Jul-27 07:32N 38°32' E 015°47'0 0.3
2015-Jul-27 06:33N 38°31' E 015°47'0 0.3
2015-Jul-27 05:32N 38°32' E 015°47'0 0.3
2015-Jul-27 04:27N 38°32' E 015°48'0 0.2
2015-Jul-27 03:30N 38°32' E 015°48'0 0.1
2015-Jul-27 02:32N 38°32' E 015°48'0 0.1
2015-Jul-27 01:34N 38°32' E 015°48'0 0.2
2015-Jul-27 00:33N 38°32' E 015°48'0 0.3
2015-Jul-26 23:33N 38°31' E 015°48'0 0.3
2015-Jul-26 22:32N 38°31' E 015°49'0 0.4
2015-Jul-26 21:32N 38°31' E 015°49'0 0.3
2015-Jul-26 20:33N 38°31' E 015°50'0 0.1
2015-Jul-26 19:33N 38°31' E 015°50'0 0.1
2015-Jul-26 18:33N 38°31' E 015°50'0 0.1
2015-Jul-26 17:33N 38°31' E 015°50'0 0.2
2015-Jul-26 16:15N 38°31' E 015°50'0 0.1
2015-Jul-26 15:14N 38°31' E 015°50'0 0.5
2015-Jul-26 14:33N 38°31' E 015°50'3 2.6
2015-Jul-26 13:33N 38°31' E 015°46'0 0.4
2015-Jul-26 12:33N 38°31' E 015°46'6 6.3
2015-Jul-26 11:33N 38°30' E 015°38'1211.6
2015-Jul-26 10:33N 38°26' E 015°24'1211.6
2015-Jul-26 09:34N 38°21' E 015°11'1111.3
2015-Jul-26 08:33N 38°19' E 014°57'1211.7
2015-Jul-26 07:33N 38°19' E 014°42'4711.9
2015-Jul-26 03:33N 38°19' E 013°41'1211.6
2015-Jul-26 02:33N 38°19' E 013°27'1211.6
2015-Jul-26 01:33N 38°19' E 013°12'2911.7
2015-Jul-25 23:04N 38°19' E 012°35'711.7
2015-Jul-25 22:29N 38°19' E 012°26'1111.9
2015-Jul-25 21:33N 38°19' E 012°12'13914.9
2015-Jul-25 12:12N 38°02' E 009°16'1116.9
2015-Jul-25 11:33N 37°60' E 009°02'1716.6
2015-Jul-25 10:33N 37°57' E 008°41'15316.3
2015-Jul-25 01:09N 37°29' E 005°31'1016.7
2015-Jul-25 00:33N 37°28' E 005°19'1616.2
2015-Jul-24 23:33N 37°25' E 004°58'3316.6
2015-Jul-24 21:33N 37°19' E 004°17'1916.5
2015-Jul-24 20:24N 37°15' E 003°54'1416.7
2015-Jul-24 19:33N 37°13' E 003°36'1716.5
2015-Jul-24 18:33N 37°10' E 003°16'1716.6
2015-Jul-24 17:33N 37°07' E 002°56'1716.6
2015-Jul-24 16:33N 37°04' E 002°35'1816.7
2015-Jul-24 15:30N 37°01' E 002°13'1516.1
2015-Jul-24 14:33N 36°58' E 001°55'1616.3
2015-Jul-24 13:33N 36°55' E 001°35'1616.5
2015-Jul-24 12:34N 36°52' E 001°14'1717.4
2015-Jul-24 11:33N 36°49' E 000°53'1716.8
2015-Jul-24 10:33N 36°45' E 000°32'2316.6
2015-Jul-24 09:10N 36°42' E 000°04'1616.5
2015-Jul-24 08:11N 36°39' W 000°16'1117.9
2015-Jul-24 07:33N 36°37' W 000°30'1817.7
2015-Jul-24 06:33N 36°33' W 000°51'1917.5
2015-Jul-24 05:30N 36°30' W 001°14'1817.7
2015-Jul-24 04:27N 36°27' W 001°37'1617.6
2015-Jul-24 03:33N 36°24' W 001°56'1817.7
2015-Jul-24 02:33N 36°21' W 002°18'20418.4
2015-Jul-23 15:29N 35°57' W 006°28'3518.0
2015-Jul-23 13:32N 36°06' W 007°10'2118.0
2015-Jul-23 12:21N 36°11' W 007°35'2018.1
2015-Jul-23 11:15N 36°17' W 007°59'1918.2
2015-Jul-23 10:12N 36°22' W 008°22'1218.3
2015-Jul-23 09:33N 36°25' W 008°36'1818.2
2015-Jul-23 08:34N 36°30' W 008°58'1817.8
2015-Jul-23 07:33N 36°35' W 009°19'1717.4
2015-Jul-23 06:33N 36°48' W 009°33'1817.8
2015-Jul-23 05:34N 37°06' W 009°38'1818.0
2015-Jul-23 04:33N 37°23' W 009°43'1817.9
2015-Jul-23 03:33N 37°41' W 009°48'1817.9
2015-Jul-23 02:33N 37°58' W 009°53'1818.1
2015-Jul-23 01:33N 38°16' W 009°58'1818.0
2015-Jul-23 00:33N 38°33' W 010°03'1817.8
2015-Jul-22 23:33N 38°51' W 010°07'1918.4
2015-Jul-22 22:33N 39°10' W 010°07'1818.1
2015-Jul-22 21:33N 39°28' W 010°06'1818.2
2015-Jul-22 20:33N 39°46' W 010°06'1918.4
2015-Jul-22 19:32N 40°04' W 010°06'1818.2
2015-Jul-22 18:33N 40°22' W 010°06'  
Track history (hours):
 
Tides and Currents Weather Stations Pressure Air Temp Water Temp Dewpoint Dewpoint Depression Visibility Wind Speed Wind Dir Waves Ship Positions

MSC Susanna

Last reported at 2015-Aug-01 16:33 UTC. Time now 2015-Aug-01 20:21 UTC.
Position N 31°28' E 032°18'.

Length 337 m; draft 14.8 m.

Type: Ship (hazmat cat A). MMSI: 371466000.

Date/timePositionNaut miles runAvg speedWind from/ knotsBaromVisibWave heightAir tempDewpointWater temp
2015-Aug-01 16:33N 31°28' E 032°18'0 0.0
2015-Aug-01 11:33N 31°28' E 032°18'0 0.0
2015-Aug-01 09:29N 31°28' E 032°18'0 0.0
2015-Jul-31 10:19N 31°28' E 032°18'5 7.0
2015-Jul-31 09:33N 31°31' E 032°13'8814.4
2015-Jul-31 03:26N 32°14' E 030°42'1112.9
2015-Jul-31 02:33N 32°18' E 030°30'1312.9
2015-Jul-31 01:33N 32°23' E 030°16'1312.9
2015-Jul-31 00:34N 32°28' E 030°02'4012.9
2015-Jul-30 21:28N 32°44' E 029°18'1212.9
2015-Jul-30 20:33N 32°48' E 029°05'1313.0
2015-Jul-30 19:33N 32°53' E 028°51'2013.4
2015-Jul-30 18:05N 33°01' E 028°29'713.5
2015-Jul-30 17:33N 33°03' E 028°21'5415.8
2015-Jul-30 14:07N 33°24' E 027°22'915.8
2015-Jul-30 13:33N 33°28' E 027°12'62216.0
2015-Jul-28 22:33N 37°54' E 015°39'1717.2
2015-Jul-28 21:34N 38°10' E 015°35'1313.1
2015-Jul-28 20:33N 38°21' E 015°46'9 9.4
2015-Jul-28 19:33N 38°27' E 015°54'0 0.2
2015-Jul-28 18:30N 38°28' E 015°54'0 0.0
2015-Jul-28 17:33N 38°28' E 015°54'0 0.0
2015-Jul-28 16:33N 38°28' E 015°54'0 0.0
2015-Jul-28 14:30N 38°28' E 015°54'0 0.0
2015-Jul-28 13:33N 38°28' E 015°54'0 0.0
2015-Jul-28 12:27N 38°28' E 015°54'0 0.0
2015-Jul-28 11:33N 38°28' E 015°54'0 0.0
2015-Jul-28 10:33N 38°28' E 015°54'0 0.0
2015-Jul-28 09:30N 38°28' E 015°54'0 0.0
2015-Jul-28 08:30N 38°28' E 015°54'0 0.0
2015-Jul-28 07:33N 38°28' E 015°54'0 0.0
2015-Jul-28 06:12N 38°28' E 015°54'0 0.0
2015-Jul-28 05:30N 38°28' E 015°54'0 0.0
2015-Jul-28 04:33N 38°28' E 015°54'0 0.0
2015-Jul-28 03:30N 38°28' E 015°54'0 0.0
2015-Jul-28 02:33N 38°28' E 015°54'0 0.0
2015-Jul-28 01:33N 38°28' E 015°54'0 0.0
2015-Jul-28 00:33N 38°28' E 015°54'0 0.0
2015-Jul-27 23:27N 38°28' E 015°54'0 0.0
2015-Jul-27 22:30N 38°28' E 015°54'0 0.0
2015-Jul-27 21:33N 38°28' E 015°54'0 0.0
2015-Jul-27 20:30N 38°28' E 015°54'0 0.0
2015-Jul-27 19:27N 38°28' E 015°54'0 0.0
2015-Jul-27 17:30N 38°28' E 015°54'0 0.0
2015-Jul-27 15:06N 38°28' E 015°54'0 0.0
2015-Jul-27 14:33N 38°28' E 015°54'0 0.0
2015-Jul-27 13:27N 38°28' E 015°54'0 0.0
2015-Jul-27 12:33N 38°28' E 015°54'0 0.0
2015-Jul-27 11:06N 38°28' E 015°54'0 0.0
2015-Jul-27 10:33N 38°28' E 015°54'0 0.0
2015-Jul-27 09:33N 38°28' E 015°54'4 3.6
2015-Jul-27 08:33N 38°29' E 015°50'4 3.9
2015-Jul-27 07:32N 38°32' E 015°47'0 0.3
2015-Jul-27 06:33N 38°31' E 015°47'0 0.3
2015-Jul-27 05:32N 38°32' E 015°47'0 0.3
2015-Jul-27 04:27N 38°32' E 015°48'0 0.2
2015-Jul-27 03:30N 38°32' E 015°48'0 0.1
2015-Jul-27 02:32N 38°32' E 015°48'0 0.1
2015-Jul-27 01:34N 38°32' E 015°48'0 0.2
2015-Jul-27 00:33N 38°32' E 015°48'0 0.3
2015-Jul-26 23:33N 38°31' E 015°48'0 0.3
2015-Jul-26 22:32N 38°31' E 015°49'0 0.4
2015-Jul-26 21:32N 38°31' E 015°49'0 0.3
2015-Jul-26 20:33N 38°31' E 015°50'0 0.1
2015-Jul-26 19:33N 38°31' E 015°50'0 0.1
2015-Jul-26 18:33N 38°31' E 015°50'0 0.1
2015-Jul-26 17:33N 38°31' E 015°50'0 0.2
2015-Jul-26 16:15N 38°31' E 015°50'0 0.1
2015-Jul-26 15:14N 38°31' E 015°50'0 0.5
2015-Jul-26 14:33N 38°31' E 015°50'3 2.6
2015-Jul-26 13:33N 38°31' E 015°46'0 0.4
2015-Jul-26 12:33N 38°31' E 015°46'6 6.3
2015-Jul-26 11:33N 38°30' E 015°38'1211.6
2015-Jul-26 10:33N 38°26' E 015°24'1211.6
2015-Jul-26 09:34N 38°21' E 015°11'1111.3
2015-Jul-26 08:33N 38°19' E 014°57'1211.7
2015-Jul-26 07:33N 38°19' E 014°42'4711.9
2015-Jul-26 03:33N 38°19' E 013°41'1211.6
2015-Jul-26 02:33N 38°19' E 013°27'1211.6
2015-Jul-26 01:33N 38°19' E 013°12'2911.7
2015-Jul-25 23:04N 38°19' E 012°35'711.7
2015-Jul-25 22:29N 38°19' E 012°26'1111.9
2015-Jul-25 21:33N 38°19' E 012°12'13914.9
2015-Jul-25 12:12N 38°02' E 009°16'1116.9
2015-Jul-25 11:33N 37°60' E 009°02'1716.6
2015-Jul-25 10:33N 37°57' E 008°41'15316.3
2015-Jul-25 01:09N 37°29' E 005°31'1016.7
2015-Jul-25 00:33N 37°28' E 005°19'1616.2
2015-Jul-24 23:33N 37°25' E 004°58'3316.6
2015-Jul-24 21:33N 37°19' E 004°17'1916.5
2015-Jul-24 20:24N 37°15' E 003°54'1416.7
2015-Jul-24 19:33N 37°13' E 003°36'1716.5
2015-Jul-24 18:33N 37°10' E 003°16'1716.6
2015-Jul-24 17:33N 37°07' E 002°56'1716.6
2015-Jul-24 16:33N 37°04' E 002°35'1816.7
2015-Jul-24 15:30N 37°01' E 002°13'1516.1
2015-Jul-24 14:33N 36°58' E 001°55'1616.3
2015-Jul-24 13:33N 36°55' E 001°35'1616.5
2015-Jul-24 12:34N 36°52' E 001°14'1717.4
2015-Jul-24 11:33N 36°49' E 000°53'1716.8
2015-Jul-24 10:33N 36°45' E 000°32'2316.6
2015-Jul-24 09:10N 36°42' E 000°04'1616.5
2015-Jul-24 08:11N 36°39' W 000°16'1117.9
2015-Jul-24 07:33N 36°37' W 000°30'1817.7
2015-Jul-24 06:33N 36°33' W 000°51'1917.5
2015-Jul-24 05:30N 36°30' W 001°14'1817.7
2015-Jul-24 04:27N 36°27' W 001°37'1617.6
2015-Jul-24 03:33N 36°24' W 001°56'1817.7
2015-Jul-24 02:33N 36°21' W 002°18'20418.4
2015-Jul-23 15:29N 35°57' W 006°28'3518.0
2015-Jul-23 13:32N 36°06' W 007°10'2118.0
2015-Jul-23 12:21N 36°11' W 007°35'2018.1
2015-Jul-23 11:15N 36°17' W 007°59'1918.2
2015-Jul-23 10:12N 36°22' W 008°22'1218.3
2015-Jul-23 09:33N 36°25' W 008°36'1818.2
2015-Jul-23 08:34N 36°30' W 008°58'1817.8
2015-Jul-23 07:33N 36°35' W 009°19'1717.4
2015-Jul-23 06:33N 36°48' W 009°33'1817.8
2015-Jul-23 05:34N 37°06' W 009°38'1818.0
2015-Jul-23 04:33N 37°23' W 009°43'1817.9
2015-Jul-23 03:33N 37°41' W 009°48'1817.9
2015-Jul-23 02:33N 37°58' W 009°53'1818.1
2015-Jul-23 01:33N 38°16' W 009°58'1818.0
2015-Jul-23 00:33N 38°33' W 010°03'1817.8
2015-Jul-22 23:33N 38°51' W 010°07'1918.4
2015-Jul-22 22:33N 39°10' W 010°07'1818.1
2015-Jul-22 21:33N 39°28' W 010°06'1818.2
2015-Jul-22 20:33N 39°46' W 010°06'1918.4
2015-Jul-22 19:32N 40°04' W 010°06'1818.2
2015-Jul-22 18:33N 40°22' W 010°06'  

Dump ship's entire track history